Fort Bridger, Fort Bridger Airport (KFBR)

NameFort Bridger Airport
CityFort Bridger
CountryUnited States
ICAOKFBR
IATAFBR
Altitude2144 m
CoordinatesGoogle Map
Live Air TrafficLiveATC.net
METARKFBR 191255Z AUTO 05010KT 10SM CLR M15/M17 A2986 RMK AO2 T11501174
2019-02-19 12:55:00 Wind: Northeast (50°) 5.14 m/s - Visibility: 16093.4 m - Temperature: -15 °C - Dew point: -17 °C - Humidity: 84.9% - Pressure: 1011.18 hPa

Sorry, no flights used the airport in this database.